Lyntupy, Belarus
Current Conditions -  °F | °C
As of 6:50 AM on Saturday 29 Nov 2014 (Local Time) from EYVI Reporting Station
Light Snow Light Snow  
Wind Chill:   Ceiling: 400
Heat Index: 14°   Visibility: 1.8mi
Dew Point: 14°   Wind: 6mph
Humidity: 100%   Direction: 40°NE
Pressure: 30.48"   Gusts: NA
Location:  55.05°N, 26.31°E
Report Text: EYVI 290450Z 04005KT 2900 -SN BR OVC004 M10/M10 Q1032 R02/5/0195 NOSIG
Loading
Personal Weather Stations






























Interactive Weather Map New forecast layout! Learn more

10-Day Weather Forecast

Advertisements
Track Severe Weather on mobile